sensor_id;sensor_type;location;lat;lon;timestamp;P1;durP1;ratioP1;P2;durP2;ratioP2
11473;SDS011;5793;52.238;13.438;2023-02-05T00:01:53;10.80;;;6.50;;
11473;SDS011;5793;52.238;13.438;2023-02-05T00:04:21;10.37;;;6.53;;
11473;SDS011;5793;52.238;13.438;2023-02-05T00:06:49;9.83;;;6.80;;
11473;SDS011;5793;52.238;13.438;2023-02-05T00:09:17;9.77;;;6.40;;
11473;SDS011;5793;52.238;13.438;2023-02-05T00:11:45;10.83;;;6.97;;
11473;SDS011;5793;52.238;13.438;2023-02-05T00:14:12;9.57;;;6.83;;
11473;SDS011;5793;52.238;13.438;2023-02-05T00:16:40;11.13;;;7.00;;
11473;SDS011;5793;52.238;13.438;2023-02-05T00:19:13;8.90;;;6.53;;
11473;SDS011;5793;52.238;13.438;2023-02-05T00:21:41;10.53;;;6.67;;
11473;SDS011;5793;52.238;13.438;2023-02-05T00:24:09;10.87;;;6.87;;
11473;SDS011;5793;52.238;13.438;2023-02-05T00:26:38;13.00;;;7.50;;
11473;SDS011;5793;52.238;13.438;2023-02-05T00:29:07;13.43;;;7.37;;
11473;SDS011;5793;52.238;13.438;2023-02-05T00:31:34;10.80;;;7.13;;
11473;SDS011;5793;52.238;13.438;2023-02-05T00:34:02;10.87;;;7.10;;
11473;SDS011;5793;52.238;13.438;2023-02-05T00:36:31;10.60;;;6.07;;
11473;SDS011;5793;52.238;13.438;2023-02-05T00:38:59;12.73;;;6.57;;
11473;SDS011;5793;52.238;13.438;2023-02-05T00:41:27;7.83;;;6.10;;
11473;SDS011;5793;52.238;13.438;2023-02-05T00:43:55;9.23;;;5.70;;
11473;SDS011;5793;52.238;13.438;2023-02-05T00:46:22;10.87;;;6.40;;
11473;SDS011;5793;52.238;13.438;2023-02-05T00:48:50;10.77;;;6.40;;
11473;SDS011;5793;52.238;13.438;2023-02-05T00:51:18;10.03;;;6.13;;
11473;SDS011;5793;52.238;13.438;2023-02-05T00:53:47;9.20;;;6.63;;
11473;SDS011;5793;52.238;13.438;2023-02-05T00:56:15;8.67;;;5.83;;
11473;SDS011;5793;52.238;13.438;2023-02-05T00:58:43;11.07;;;5.80;;
11473;SDS011;5793;52.238;13.438;2023-02-05T01:01:13;9.30;;;5.53;;
11473;SDS011;5793;52.238;13.438;2023-02-05T01:03:44;8.17;;;5.53;;
11473;SDS011;5793;52.238;13.438;2023-02-05T01:06:12;9.27;;;5.87;;
11473;SDS011;5793;52.238;13.438;2023-02-05T01:08:40;7.37;;;5.53;;
11473;SDS011;5793;52.238;13.438;2023-02-05T01:11:09;7.07;;;4.97;;
11473;SDS011;5793;52.238;13.438;2023-02-05T01:13:37;11.10;;;5.47;;
11473;SDS011;5793;52.238;13.438;2023-02-05T01:16:05;11.23;;;5.77;;
11473;SDS011;5793;52.238;13.438;2023-02-05T01:18:35;8.03;;;5.50;;
11473;SDS011;5793;52.238;13.438;2023-02-05T01:21:06;8.90;;;5.57;;
11473;SDS011;5793;52.238;13.438;2023-02-05T01:23:34;8.77;;;5.47;;
11473;SDS011;5793;52.238;13.438;2023-02-05T01:26:02;8.40;;;4.93;;
11473;SDS011;5793;52.238;13.438;2023-02-05T01:28:31;10.27;;;5.03;;
11473;SDS011;5793;52.238;13.438;2023-02-05T01:30:59;7.00;;;5.03;;
11473;SDS011;5793;52.238;13.438;2023-02-05T01:33:27;12.20;;;5.20;;
11473;SDS011;5793;52.238;13.438;2023-02-05T01:35:54;7.20;;;4.80;;
11473;SDS011;5793;52.238;13.438;2023-02-05T01:38:22;7.70;;;5.13;;
11473;SDS011;5793;52.238;13.438;2023-02-05T01:40:50;8.67;;;5.00;;
11473;SDS011;5793;52.238;13.438;2023-02-05T01:43:18;7.63;;;5.13;;
11473;SDS011;5793;52.238;13.438;2023-02-05T01:45:53;6.73;;;4.70;;
11473;SDS011;5793;52.238;13.438;2023-02-05T01:48:32;7.90;;;5.10;;
11473;SDS011;5793;52.238;13.438;2023-02-05T01:51:03;5.83;;;4.37;;
11473;SDS011;5793;52.238;13.438;2023-02-05T01:53:35;9.67;;;5.50;;
11473;SDS011;5793;52.238;13.438;2023-02-05T01:56:05;6.33;;;5.00;;
11473;SDS011;5793;52.238;13.438;2023-02-05T01:58:43;9.83;;;5.10;;
11473;SDS011;5793;52.238;13.438;2023-02-05T02:01:15;6.90;;;4.53;;
11473;SDS011;5793;52.238;13.438;2023-02-05T02:03:43;9.00;;;4.40;;
11473;SDS011;5793;52.238;13.438;2023-02-05T02:06:11;7.77;;;4.57;;
11473;SDS011;5793;52.238;13.438;2023-02-05T02:08:39;7.00;;;4.90;;
11473;SDS011;5793;52.238;13.438;2023-02-05T02:11:07;6.87;;;4.87;;
11473;SDS011;5793;52.238;13.438;2023-02-05T02:13:37;6.70;;;4.57;;
11473;SDS011;5793;52.238;13.438;2023-02-05T02:16:06;9.50;;;5.43;;
11473;SDS011;5793;52.238;13.438;2023-02-05T02:18:36;8.53;;;4.90;;
11473;SDS011;5793;52.238;13.438;2023-02-05T02:24:11;7.97;;;5.07;;
11473;SDS011;5793;52.238;13.438;2023-02-05T02:29:45;9.17;;;5.10;;
11473;SDS011;5793;52.238;13.438;2023-02-05T02:32:18;8.37;;;5.07;;
11473;SDS011;5793;52.238;13.438;2023-02-05T02:34:53;8.80;;;5.40;;
11473;SDS011;5793;52.238;13.438;2023-02-05T02:37:27;5.70;;;4.70;;
11473;SDS011;5793;52.238;13.438;2023-02-05T02:40:03;8.57;;;5.33;;
11473;SDS011;5793;52.238;13.438;2023-02-05T02:42:38;8.87;;;5.00;;
11473;SDS011;5793;52.238;13.438;2023-02-05T02:45:12;7.93;;;5.10;;
11473;SDS011;5793;52.238;13.438;2023-02-05T02:47:45;7.10;;;4.77;;
11473;SDS011;5793;52.238;13.438;2023-02-05T02:50:16;7.20;;;4.77;;
11473;SDS011;5793;52.238;13.438;2023-02-05T02:52:48;6.87;;;4.37;;
11473;SDS011;5793;52.238;13.438;2023-02-05T02:55:18;7.87;;;4.70;;
11473;SDS011;5793;52.238;13.438;2023-02-05T02:57:48;9.40;;;4.50;;
11473;SDS011;5793;52.238;13.438;2023-02-05T03:00:21;8.17;;;4.97;;
11473;SDS011;5793;52.238;13.438;2023-02-05T03:02:53;9.20;;;5.30;;
11473;SDS011;5793;52.238;13.438;2023-02-05T03:05:25;7.27;;;4.67;;
11473;SDS011;5793;52.238;13.438;2023-02-05T03:07:55;8.77;;;4.93;;
11473;SDS011;5793;52.238;13.438;2023-02-05T03:10:28;8.70;;;4.50;;
11473;SDS011;5793;52.238;13.438;2023-02-05T03:13:02;6.17;;;4.37;;
11473;SDS011;5793;52.238;13.438;2023-02-05T03:15:31;7.83;;;4.87;;
11473;SDS011;5793;52.238;13.438;2023-02-05T03:17:59;5.80;;;3.93;;
11473;SDS011;5793;52.238;13.438;2023-02-05T03:20:28;6.23;;;4.43;;
11473;SDS011;5793;52.238;13.438;2023-02-05T03:22:59;7.20;;;4.83;;
11473;SDS011;5793;52.238;13.438;2023-02-05T03:25:27;7.17;;;4.50;;
11473;SDS011;5793;52.238;13.438;2023-02-05T03:27:55;6.63;;;4.70;;
11473;SDS011;5793;52.238;13.438;2023-02-05T03:30:26;7.23;;;4.40;;
11473;SDS011;5793;52.238;13.438;2023-02-05T03:33:00;9.13;;;5.33;;
11473;SDS011;5793;52.238;13.438;2023-02-05T03:35:37;6.63;;;4.43;;
11473;SDS011;5793;52.238;13.438;2023-02-05T03:38:20;6.27;;;4.63;;
11473;SDS011;5793;52.238;13.438;2023-02-05T03:41:01;7.43;;;4.33;;
11473;SDS011;5793;52.238;13.438;2023-02-05T03:43:39;8.30;;;4.80;;
11473;SDS011;5793;52.238;13.438;2023-02-05T03:46:15;6.53;;;4.07;;
11473;SDS011;5793;52.238;13.438;2023-02-05T03:48:47;8.93;;;4.60;;
11473;SDS011;5793;52.238;13.438;2023-02-05T03:51:29;8.90;;;4.50;;
11473;SDS011;5793;52.238;13.438;2023-02-05T03:54:04;6.67;;;4.23;;
11473;SDS011;5793;52.238;13.438;2023-02-05T03:56:39;7.83;;;4.47;;
11473;SDS011;5793;52.238;13.438;2023-02-05T03:59:12;6.70;;;4.20;;
11473;SDS011;5793;52.238;13.438;2023-02-05T04:01:42;8.47;;;4.60;;
11473;SDS011;5793;52.238;13.438;2023-02-05T04:04:12;7.97;;;4.07;;
11473;SDS011;5793;52.238;13.438;2023-02-05T04:06:40;7.80;;;4.50;;
11473;SDS011;5793;52.238;13.438;2023-02-05T04:11:51;6.03;;;4.20;;
11473;SDS011;5793;52.238;13.438;2023-02-05T04:14:19;11.00;;;5.13;;
11473;SDS011;5793;52.238;13.438;2023-02-05T04:16:46;6.53;;;4.50;;
11473;SDS011;5793;52.238;13.438;2023-02-05T04:19:15;6.40;;;4.70;;
11473;SDS011;5793;52.238;13.438;2023-02-05T04:21:43;6.90;;;4.77;;
11473;SDS011;5793;52.238;13.438;2023-02-05T04:24:11;6.40;;;4.43;;
11473;SDS011;5793;52.238;13.438;2023-02-05T04:26:39;9.17;;;5.33;;
11473;SDS011;5793;52.238;13.438;2023-02-05T04:29:07;9.67;;;5.03;;
11473;SDS011;5793;52.238;13.438;2023-02-05T04:31:34;9.10;;;5.17;;
11473;SDS011;5793;52.238;13.438;2023-02-05T04:34:02;10.87;;;4.63;;
11473;SDS011;5793;52.238;13.438;2023-02-05T04:36:31;10.00;;;4.80;;
11473;SDS011;5793;52.238;13.438;2023-02-05T04:38:59;7.27;;;4.67;;
11473;SDS011;5793;52.238;13.438;2023-02-05T04:41:27;6.93;;;4.50;;
11473;SDS011;5793;52.238;13.438;2023-02-05T04:43:54;6.57;;;4.60;;
11473;SDS011;5793;52.238;13.438;2023-02-05T04:46:22;7.17;;;4.70;;
11473;SDS011;5793;52.238;13.438;2023-02-05T04:48:50;8.63;;;4.67;;
11473;SDS011;5793;52.238;13.438;2023-02-05T04:51:18;8.53;;;4.30;;
11473;SDS011;5793;52.238;13.438;2023-02-05T04:53:47;7.33;;;4.50;;
11473;SDS011;5793;52.238;13.438;2023-02-05T04:56:15;6.67;;;4.30;;
11473;SDS011;5793;52.238;13.438;2023-02-05T04:58:44;6.23;;;4.50;;
11473;SDS011;5793;52.238;13.438;2023-02-05T05:01:12;8.27;;;5.07;;
11473;SDS011;5793;52.238;13.438;2023-02-05T05:03:41;7.73;;;4.80;;
11473;SDS011;5793;52.238;13.438;2023-02-05T05:06:09;10.80;;;5.27;;
11473;SDS011;5793;52.238;13.438;2023-02-05T05:08:38;7.20;;;4.97;;
11473;SDS011;5793;52.238;13.438;2023-02-05T05:11:07;9.23;;;6.70;;
11473;SDS011;5793;52.238;13.438;2023-02-05T05:13:36;13.67;;;8.77;;
11473;SDS011;5793;52.238;13.438;2023-02-05T05:16:05;9.10;;;6.03;;
11473;SDS011;5793;52.238;13.438;2023-02-05T05:18:33;8.43;;;5.30;;
11473;SDS011;5793;52.238;13.438;2023-02-05T05:21:02;8.83;;;5.93;;
11473;SDS011;5793;52.238;13.438;2023-02-05T05:23:31;9.60;;;5.60;;
11473;SDS011;5793;52.238;13.438;2023-02-05T05:26:02;8.77;;;5.67;;
11473;SDS011;5793;52.238;13.438;2023-02-05T05:28:31;10.53;;;6.47;;
11473;SDS011;5793;52.238;13.438;2023-02-05T05:31:04;7.40;;;5.77;;
11473;SDS011;5793;52.238;13.438;2023-02-05T05:33:33;9.93;;;5.83;;
11473;SDS011;5793;52.238;13.438;2023-02-05T05:36:01;10.70;;;6.83;;
11473;SDS011;5793;52.238;13.438;2023-02-05T05:38:30;9.57;;;6.10;;
11473;SDS011;5793;52.238;13.438;2023-02-05T05:40:58;10.20;;;6.33;;
11473;SDS011;5793;52.238;13.438;2023-02-05T05:43:44;11.37;;;6.10;;
11473;SDS011;5793;52.238;13.438;2023-02-05T05:46:13;11.53;;;6.60;;
11473;SDS011;5793;52.238;13.438;2023-02-05T05:48:47;9.17;;;6.20;;
11473;SDS011;5793;52.238;13.438;2023-02-05T05:51:16;8.90;;;6.20;;
11473;SDS011;5793;52.238;13.438;2023-02-05T05:53:44;9.70;;;6.30;;
11473;SDS011;5793;52.238;13.438;2023-02-05T05:56:12;10.60;;;6.57;;
11473;SDS011;5793;52.238;13.438;2023-02-05T05:58:40;11.50;;;6.23;;
11473;SDS011;5793;52.238;13.438;2023-02-05T06:01:14;10.83;;;6.27;;
11473;SDS011;5793;52.238;13.438;2023-02-05T06:03:44;9.33;;;5.93;;
11473;SDS011;5793;52.238;13.438;2023-02-05T06:06:12;7.97;;;5.57;;
11473;SDS011;5793;52.238;13.438;2023-02-05T06:08:39;8.80;;;6.07;;
11473;SDS011;5793;52.238;13.438;2023-02-05T06:11:07;9.30;;;5.73;;
11473;SDS011;5793;52.238;13.438;2023-02-05T06:13:35;8.67;;;5.97;;
11473;SDS011;5793;52.238;13.438;2023-02-05T06:16:05;9.20;;;6.20;;
11473;SDS011;5793;52.238;13.438;2023-02-05T06:18:33;11.40;;;6.77;;
11473;SDS011;5793;52.238;13.438;2023-02-05T06:21:04;9.77;;;6.37;;
11473;SDS011;5793;52.238;13.438;2023-02-05T06:23:32;10.63;;;6.10;;
11473;SDS011;5793;52.238;13.438;2023-02-05T06:26:00;11.47;;;6.67;;
11473;SDS011;5793;52.238;13.438;2023-02-05T06:28:28;13.10;;;6.33;;
11473;SDS011;5793;52.238;13.438;2023-02-05T06:30:55;9.13;;;5.87;;
11473;SDS011;5793;52.238;13.438;2023-02-05T06:33:25;8.40;;;5.60;;
11473;SDS011;5793;52.238;13.438;2023-02-05T06:35:52;7.77;;;5.50;;
11473;SDS011;5793;52.238;13.438;2023-02-05T06:38:20;10.10;;;5.63;;
11473;SDS011;5793;52.238;13.438;2023-02-05T06:40:48;9.60;;;6.27;;
11473;SDS011;5793;52.238;13.438;2023-02-05T06:43:16;11.07;;;6.60;;
11473;SDS011;5793;52.238;13.438;2023-02-05T06:45:43;10.23;;;6.17;;
11473;SDS011;5793;52.238;13.438;2023-02-05T06:48:11;10.60;;;5.80;;
11473;SDS011;5793;52.238;13.438;2023-02-05T06:50:40;10.90;;;6.43;;
11473;SDS011;5793;52.238;13.438;2023-02-05T06:53:08;11.83;;;6.17;;
11473;SDS011;5793;52.238;13.438;2023-02-05T06:55:39;9.97;;;6.60;;
11473;SDS011;5793;52.238;13.438;2023-02-05T06:58:07;9.40;;;6.30;;
11473;SDS011;5793;52.238;13.438;2023-02-05T07:00:34;11.20;;;6.67;;
11473;SDS011;5793;52.238;13.438;2023-02-05T07:03:02;10.97;;;6.60;;
11473;SDS011;5793;52.238;13.438;2023-02-05T07:05:31;9.87;;;5.93;;
11473;SDS011;5793;52.238;13.438;2023-02-05T07:08:01;9.00;;;6.20;;
11473;SDS011;5793;52.238;13.438;2023-02-05T07:10:31;9.33;;;6.00;;
11473;SDS011;5793;52.238;13.438;2023-02-05T07:12:59;9.23;;;6.33;;
11473;SDS011;5793;52.238;13.438;2023-02-05T07:15:30;8.90;;;6.50;;
11473;SDS011;5793;52.238;13.438;2023-02-05T07:17:58;10.40;;;6.10;;
11473;SDS011;5793;52.238;13.438;2023-02-05T07:20:26;9.80;;;6.10;;
11473;SDS011;5793;52.238;13.438;2023-02-05T07:22:54;12.27;;;7.13;;
11473;SDS011;5793;52.238;13.438;2023-02-05T07:25:23;10.83;;;7.27;;
11473;SDS011;5793;52.238;13.438;2023-02-05T07:27:51;10.97;;;7.30;;
11473;SDS011;5793;52.238;13.438;2023-02-05T07:30:19;11.63;;;7.17;;
11473;SDS011;5793;52.238;13.438;2023-02-05T07:32:46;11.20;;;6.77;;
11473;SDS011;5793;52.238;13.438;2023-02-05T07:35:14;9.93;;;6.53;;
11473;SDS011;5793;52.238;13.438;2023-02-05T07:37:42;8.30;;;6.20;;
11473;SDS011;5793;52.238;13.438;2023-02-05T07:40:10;8.27;;;6.23;;
11473;SDS011;5793;52.238;13.438;2023-02-05T07:42:39;10.03;;;6.40;;
11473;SDS011;5793;52.238;13.438;2023-02-05T07:45:07;13.77;;;7.40;;
11473;SDS011;5793;52.238;13.438;2023-02-05T07:47:36;10.00;;;6.90;;
11473;SDS011;5793;52.238;13.438;2023-02-05T07:50:04;12.90;;;8.30;;
11473;SDS011;5793;52.238;13.438;2023-02-05T07:52:32;12.87;;;7.90;;
11473;SDS011;5793;52.238;13.438;2023-02-05T07:55:00;11.00;;;7.07;;
11473;SDS011;5793;52.238;13.438;2023-02-05T07:57:28;8.50;;;6.27;;
11473;SDS011;5793;52.238;13.438;2023-02-05T07:59:57;11.67;;;6.77;;
11473;SDS011;5793;52.238;13.438;2023-02-05T08:02:24;8.97;;;6.00;;
11473;SDS011;5793;52.238;13.438;2023-02-05T08:04:52;8.10;;;6.10;;
11473;SDS011;5793;52.238;13.438;2023-02-05T08:07:20;7.67;;;5.27;;
11473;SDS011;5793;52.238;13.438;2023-02-05T08:09:47;8.43;;;5.00;;
11473;SDS011;5793;52.238;13.438;2023-02-05T08:12:15;7.20;;;5.20;;
11473;SDS011;5793;52.238;13.438;2023-02-05T08:14:43;6.87;;;5.00;;
11473;SDS011;5793;52.238;13.438;2023-02-05T08:17:12;9.10;;;5.80;;
11473;SDS011;5793;52.238;13.438;2023-02-05T08:19:40;8.13;;;5.87;;
11473;SDS011;5793;52.238;13.438;2023-02-05T08:22:08;7.83;;;5.60;;
11473;SDS011;5793;52.238;13.438;2023-02-05T08:24:35;7.70;;;5.37;;
11473;SDS011;5793;52.238;13.438;2023-02-05T08:27:03;7.13;;;4.87;;
11473;SDS011;5793;52.238;13.438;2023-02-05T08:29:31;7.07;;;5.03;;
11473;SDS011;5793;52.238;13.438;2023-02-05T08:31:59;8.47;;;5.80;;
11473;SDS011;5793;52.238;13.438;2023-02-05T08:34:28;9.73;;;6.07;;
11473;SDS011;5793;52.238;13.438;2023-02-05T08:36:56;7.77;;;6.50;;
11473;SDS011;5793;52.238;13.438;2023-02-05T08:39:24;10.00;;;5.83;;
11473;SDS011;5793;52.238;13.438;2023-02-05T08:41:52;7.87;;;4.67;;
11473;SDS011;5793;52.238;13.438;2023-02-05T08:44:22;6.63;;;4.10;;
11473;SDS011;5793;52.238;13.438;2023-02-05T08:46:50;6.93;;;3.40;;
11473;SDS011;5793;52.238;13.438;2023-02-05T08:49:17;5.27;;;3.57;;
11473;SDS011;5793;52.238;13.438;2023-02-05T08:51:46;6.03;;;3.93;;
11473;SDS011;5793;52.238;13.438;2023-02-05T08:54:14;5.07;;;3.60;;
11473;SDS011;5793;52.238;13.438;2023-02-05T08:56:43;6.70;;;4.43;;
11473;SDS011;5793;52.238;13.438;2023-02-05T08:59:11;8.73;;;4.97;;
11473;SDS011;5793;52.238;13.438;2023-02-05T09:01:40;6.23;;;4.10;;
11473;SDS011;5793;52.238;13.438;2023-02-05T09:06:52;9.87;;;4.77;;
11473;SDS011;5793;52.238;13.438;2023-02-05T09:09:20;7.70;;;4.93;;
11473;SDS011;5793;52.238;13.438;2023-02-05T09:11:48;8.00;;;5.00;;
11473;SDS011;5793;52.238;13.438;2023-02-05T09:14:15;7.47;;;4.30;;
11473;SDS011;5793;52.238;13.438;2023-02-05T09:16:43;5.67;;;3.90;;
11473;SDS011;5793;52.238;13.438;2023-02-05T09:19:11;5.57;;;3.50;;
11473;SDS011;5793;52.238;13.438;2023-02-05T09:21:39;6.80;;;3.73;;
11473;SDS011;5793;52.238;13.438;2023-02-05T09:24:08;5.23;;;3.90;;
11473;SDS011;5793;52.238;13.438;2023-02-05T09:26:36;8.63;;;3.90;;
11473;SDS011;5793;52.238;13.438;2023-02-05T09:29:04;6.33;;;4.00;;
11473;SDS011;5793;52.238;13.438;2023-02-05T09:31:31;7.77;;;3.87;;
11473;SDS011;5793;52.238;13.438;2023-02-05T09:34:00;7.53;;;4.43;;
11473;SDS011;5793;52.238;13.438;2023-02-05T09:36:28;8.77;;;4.23;;
11473;SDS011;5793;52.238;13.438;2023-02-05T09:38:56;4.87;;;3.50;;
11473;SDS011;5793;52.238;13.438;2023-02-05T09:41:43;7.43;;;3.70;;
11473;SDS011;5793;52.238;13.438;2023-02-05T09:44:19;5.00;;;3.50;;
11473;SDS011;5793;52.238;13.438;2023-02-05T09:46:53;4.40;;;3.23;;
11473;SDS011;5793;52.238;13.438;2023-02-05T09:49:27;5.47;;;3.08;;
11473;SDS011;5793;52.238;13.438;2023-02-05T09:51:57;5.17;;;3.00;;
11473;SDS011;5793;52.238;13.438;2023-02-05T09:54:29;3.83;;;2.97;;
11473;SDS011;5793;52.238;13.438;2023-02-05T09:57:02;2.90;;;2.17;;
11473;SDS011;5793;52.238;13.438;2023-02-05T09:59:33;8.00;;;2.40;;
11473;SDS011;5793;52.238;13.438;2023-02-05T10:02:01;5.13;;;3.20;;
11473;SDS011;5793;52.238;13.438;2023-02-05T10:04:42;6.00;;;4.07;;
11473;SDS011;5793;52.238;13.438;2023-02-05T10:07:15;4.97;;;3.70;;
11473;SDS011;5793;52.238;13.438;2023-02-05T10:12:52;4.57;;;3.20;;
11473;SDS011;5793;52.238;13.438;2023-02-05T10:15:44;5.67;;;3.63;;
11473;SDS011;5793;52.238;13.438;2023-02-05T10:18:20;8.60;;;3.73;;
11473;SDS011;5793;52.238;13.438;2023-02-05T10:20:56;5.00;;;3.50;;
11473;SDS011;5793;52.238;13.438;2023-02-05T10:23:39;7.87;;;4.03;;
11473;SDS011;5793;52.238;13.438;2023-02-05T10:26:17;5.80;;;4.03;;
11473;SDS011;5793;52.238;13.438;2023-02-05T10:28:58;7.83;;;3.93;;
11473;SDS011;5793;52.238;13.438;2023-02-05T10:31:49;6.30;;;4.57;;
11473;SDS011;5793;52.238;13.438;2023-02-05T10:34:29;5.77;;;3.30;;
11473;SDS011;5793;52.238;13.438;2023-02-05T10:37:13;9.97;;;5.00;;
11473;SDS011;5793;52.238;13.438;2023-02-05T10:39:43;7.10;;;4.97;;
11473;SDS011;5793;52.238;13.438;2023-02-05T10:42:19;4.20;;;2.97;;
11473;SDS011;5793;52.238;13.438;2023-02-05T10:44:55;3.27;;;2.97;;
11473;SDS011;5793;52.238;13.438;2023-02-05T10:47:41;5.27;;;3.20;;
11473;SDS011;5793;52.238;13.438;2023-02-05T10:50:17;4.70;;;4.00;;
11473;SDS011;5793;52.238;13.438;2023-02-05T10:52:51;3.77;;;3.17;;
11473;SDS011;5793;52.238;13.438;2023-02-05T10:55:19;2.73;;;2.50;;
11473;SDS011;5793;52.238;13.438;2023-02-05T10:57:47;4.00;;;2.70;;
11473;SDS011;5793;52.238;13.438;2023-02-05T11:00:17;3.63;;;2.73;;
11473;SDS011;5793;52.238;13.438;2023-02-05T11:02:47;4.53;;;2.30;;
11473;SDS011;5793;52.238;13.438;2023-02-05T11:05:19;4.53;;;2.30;;
11473;SDS011;5793;52.238;13.438;2023-02-05T11:07:51;4.53;;;2.50;;
11473;SDS011;5793;52.238;13.438;2023-02-05T11:10:20;4.07;;;2.03;;
11473;SDS011;5793;52.238;13.438;2023-02-05T11:12:52;2.47;;;1.73;;
11473;SDS011;5793;52.238;13.438;2023-02-05T11:18:21;2.50;;;1.80;;
11473;SDS011;5793;52.238;13.438;2023-02-05T11:20:53;4.43;;;2.00;;
11473;SDS011;5793;52.238;13.438;2023-02-05T11:23:22;3.83;;;1.80;;
11473;SDS011;5793;52.238;13.438;2023-02-05T11:25:52;4.93;;;2.00;;
11473;SDS011;5793;52.238;13.438;2023-02-05T11:28:22;3.47;;;1.80;;
11473;SDS011;5793;52.238;13.438;2023-02-05T11:30:54;4.60;;;2.03;;
11473;SDS011;5793;52.238;13.438;2023-02-05T11:33:25;3.67;;;2.00;;
11473;SDS011;5793;52.238;13.438;2023-02-05T11:35:55;3.13;;;1.70;;
11473;SDS011;5793;52.238;13.438;2023-02-05T11:38:30;6.23;;;1.57;;
11473;SDS011;5793;52.238;13.438;2023-02-05T11:41:01;3.77;;;2.03;;
11473;SDS011;5793;52.238;13.438;2023-02-05T11:43:31;3.07;;;2.13;;
11473;SDS011;5793;52.238;13.438;2023-02-05T11:46:02;2.43;;;1.70;;
11473;SDS011;5793;52.238;13.438;2023-02-05T11:48:36;3.53;;;1.80;;
11473;SDS011;5793;52.238;13.438;2023-02-05T11:51:07;4.03;;;2.10;;
11473;SDS011;5793;52.238;13.438;2023-02-05T11:53:37;4.50;;;1.80;;
11473;SDS011;5793;52.238;13.438;2023-02-05T11:56:18;3.17;;;1.70;;
11473;SDS011;5793;52.238;13.438;2023-02-05T11:58:57;3.10;;;1.60;;
11473;SDS011;5793;52.238;13.438;2023-02-05T12:01:27;2.30;;;1.50;;
11473;SDS011;5793;52.238;13.438;2023-02-05T12:03:59;2.07;;;1.60;;
11473;SDS011;5793;52.238;13.438;2023-02-05T12:06:29;2.07;;;1.50;;
11473;SDS011;5793;52.238;13.438;2023-02-05T12:09:01;4.47;;;3.63;;
11473;SDS011;5793;52.238;13.438;2023-02-05T12:14:36;3.00;;;1.67;;
11473;SDS011;5793;52.238;13.438;2023-02-05T12:17:15;5.20;;;1.70;;
11473;SDS011;5793;52.238;13.438;2023-02-05T12:20:04;5.90;;;1.80;;
11473;SDS011;5793;52.238;13.438;2023-02-05T12:22:48;5.00;;;2.20;;
11473;SDS011;5793;52.238;13.438;2023-02-05T12:25:28;2.63;;;1.90;;
11473;SDS011;5793;52.238;13.438;2023-02-05T12:28:04;5.80;;;2.70;;
11473;SDS011;5793;52.238;13.438;2023-02-05T12:30:47;1.93;;;1.50;;
11473;SDS011;5793;52.238;13.438;2023-02-05T12:33:33;3.00;;;1.77;;
11473;SDS011;5793;52.238;13.438;2023-02-05T12:36:19;5.20;;;1.73;;
11473;SDS011;5793;52.238;13.438;2023-02-05T12:38:59;10.63;;;4.53;;
11473;SDS011;5793;52.238;13.438;2023-02-05T12:41:35;4.23;;;1.70;;
11473;SDS011;5793;52.238;13.438;2023-02-05T12:44:13;4.70;;;1.90;;
11473;SDS011;5793;52.238;13.438;2023-02-05T12:46:53;5.53;;;1.70;;
11473;SDS011;5793;52.238;13.438;2023-02-05T12:49:39;2.87;;;1.90;;
11473;SDS011;5793;52.238;13.438;2023-02-05T12:52:24;3.50;;;1.67;;
11473;SDS011;5793;52.238;13.438;2023-02-05T12:55:05;2.00;;;1.80;;
11473;SDS011;5793;52.238;13.438;2023-02-05T12:57:41;2.70;;;1.70;;
11473;SDS011;5793;52.238;13.438;2023-02-05T13:00:14;3.10;;;1.80;;
11473;SDS011;5793;52.238;13.438;2023-02-05T13:02:50;3.80;;;2.10;;
11473;SDS011;5793;52.238;13.438;2023-02-05T13:05:25;4.13;;;2.17;;
11473;SDS011;5793;52.238;13.438;2023-02-05T13:07:59;5.10;;;2.77;;
11473;SDS011;5793;52.238;13.438;2023-02-05T13:10:37;4.67;;;2.53;;
11473;SDS011;5793;52.238;13.438;2023-02-05T13:13:13;2.70;;;1.80;;
11473;SDS011;5793;52.238;13.438;2023-02-05T13:15:47;3.77;;;1.77;;
11473;SDS011;5793;52.238;13.438;2023-02-05T13:18:24;3.23;;;1.80;;
11473;SDS011;5793;52.238;13.438;2023-02-05T13:20:57;3.83;;;1.80;;
11473;SDS011;5793;52.238;13.438;2023-02-05T13:23:46;3.70;;;1.60;;
11473;SDS011;5793;52.238;13.438;2023-02-05T13:26:33;3.50;;;2.00;;
11473;SDS011;5793;52.238;13.438;2023-02-05T13:29:23;4.57;;;2.03;;
11473;SDS011;5793;52.238;13.438;2023-02-05T13:31:56;3.57;;;2.30;;
11473;SDS011;5793;52.238;13.438;2023-02-05T13:34:40;4.20;;;2.10;;
11473;SDS011;5793;52.238;13.438;2023-02-05T13:37:14;1.93;;;1.67;;
11473;SDS011;5793;52.238;13.438;2023-02-05T13:39:59;3.20;;;1.90;;
11473;SDS011;5793;52.238;13.438;2023-02-05T13:42:45;2.70;;;1.63;;
11473;SDS011;5793;52.238;13.438;2023-02-05T13:45:47;2.63;;;1.67;;
11473;SDS011;5793;52.238;13.438;2023-02-05T13:48:56;4.57;;;2.10;;
11473;SDS011;5793;52.238;13.438;2023-02-05T13:51:49;4.37;;;2.40;;
11473;SDS011;5793;52.238;13.438;2023-02-05T13:54:50;3.43;;;1.83;;
11473;SDS011;5793;52.238;13.438;2023-02-05T13:58:03;2.10;;;1.50;;
11473;SDS011;5793;52.238;13.438;2023-02-05T14:00:38;2.67;;;1.63;;
11473;SDS011;5793;52.238;13.438;2023-02-05T14:03:08;5.97;;;1.77;;
11473;SDS011;5793;52.238;13.438;2023-02-05T14:05:52;4.07;;;2.43;;
11473;SDS011;5793;52.238;13.438;2023-02-05T14:08:21;3.47;;;1.80;;
11473;SDS011;5793;52.238;13.438;2023-02-05T14:10:57;4.40;;;2.50;;
11473;SDS011;5793;52.238;13.438;2023-02-05T14:13:27;2.67;;;2.00;;
11473;SDS011;5793;52.238;13.438;2023-02-05T14:16:30;5.83;;;2.30;;
11473;SDS011;5793;52.238;13.438;2023-02-05T14:19:16;6.30;;;2.60;;
11473;SDS011;5793;52.238;13.438;2023-02-05T14:21:48;6.10;;;3.50;;
11473;SDS011;5793;52.238;13.438;2023-02-05T14:24:26;4.33;;;2.63;;
11473;SDS011;5793;52.238;13.438;2023-02-05T14:27:19;3.57;;;2.50;;
11473;SDS011;5793;52.238;13.438;2023-02-05T14:33:06;7.03;;;3.30;;
11473;SDS011;5793;52.238;13.438;2023-02-05T14:35:54;2.83;;;2.40;;
11473;SDS011;5793;52.238;13.438;2023-02-05T14:38:24;3.63;;;2.50;;
11473;SDS011;5793;52.238;13.438;2023-02-05T14:41:01;6.70;;;3.27;;
11473;SDS011;5793;52.238;13.438;2023-02-05T14:43:35;4.00;;;2.17;;
11473;SDS011;5793;52.238;13.438;2023-02-05T14:46:05;7.30;;;3.03;;
11473;SDS011;5793;52.238;13.438;2023-02-05T14:48:46;7.13;;;2.70;;
11473;SDS011;5793;52.238;13.438;2023-02-05T14:51:17;4.87;;;2.87;;
11473;SDS011;5793;52.238;13.438;2023-02-05T14:53:54;3.53;;;1.90;;
11473;SDS011;5793;52.238;13.438;2023-02-05T14:56:26;5.73;;;3.43;;
11473;SDS011;5793;52.238;13.438;2023-02-05T14:59:01;8.87;;;4.30;;
11473;SDS011;5793;52.238;13.438;2023-02-05T15:01:41;6.10;;;4.13;;
11473;SDS011;5793;52.238;13.438;2023-02-05T15:04:15;6.60;;;4.00;;
11473;SDS011;5793;52.238;13.438;2023-02-05T15:06:50;6.23;;;3.90;;
11473;SDS011;5793;52.238;13.438;2023-02-05T15:09:21;8.20;;;3.97;;
11473;SDS011;5793;52.238;13.438;2023-02-05T15:12:07;8.77;;;3.87;;
11473;SDS011;5793;52.238;13.438;2023-02-05T15:14:56;6.27;;;3.90;;
11473;SDS011;5793;52.238;13.438;2023-02-05T15:17:43;5.83;;;3.07;;
11473;SDS011;5793;52.238;13.438;2023-02-05T15:20:18;3.67;;;2.20;;
11473;SDS011;5793;52.238;13.438;2023-02-05T15:22:55;4.03;;;2.33;;
11473;SDS011;5793;52.238;13.438;2023-02-05T15:25:34;7.03;;;4.13;;
11473;SDS011;5793;52.238;13.438;2023-02-05T15:28:07;18.73;;;11.10;;
11473;SDS011;5793;52.238;13.438;2023-02-05T15:30:50;19.60;;;11.73;;
11473;SDS011;5793;52.238;13.438;2023-02-05T15:33:27;25.23;;;16.30;;
11473;SDS011;5793;52.238;13.438;2023-02-05T15:35:59;12.00;;;7.33;;
11473;SDS011;5793;52.238;13.438;2023-02-05T15:38:31;12.43;;;7.60;;
11473;SDS011;5793;52.238;13.438;2023-02-05T15:41:03;9.10;;;6.63;;